sensor_id;sensor_type;location;lat;lon;timestamp;P1;durP1;ratioP1;P2;durP2;ratioP2
24826;SDS011;12910;57.690;11.974;2022-09-13T00:01:56;3.13;;;2.87;;
24826;SDS011;12910;57.690;11.974;2022-09-13T00:04:22;7.33;;;3.33;;
24826;SDS011;12910;57.690;11.974;2022-09-13T00:06:47;3.43;;;2.93;;
24826;SDS011;12910;57.690;11.974;2022-09-13T00:09:12;4.63;;;3.13;;
24826;SDS011;12910;57.690;11.974;2022-09-13T00:11:38;3.80;;;3.03;;
24826;SDS011;12910;57.690;11.974;2022-09-13T00:14:03;5.33;;;3.87;;
24826;SDS011;12910;57.690;11.974;2022-09-13T00:16:29;3.67;;;3.37;;
24826;SDS011;12910;57.690;11.974;2022-09-13T00:18:55;7.40;;;3.43;;
24826;SDS011;12910;57.690;11.974;2022-09-13T00:21:21;7.20;;;4.40;;
24826;SDS011;12910;57.690;11.974;2022-09-13T00:23:49;4.67;;;3.40;;
24826;SDS011;12910;57.690;11.974;2022-09-13T00:26:17;9.10;;;4.10;;
24826;SDS011;12910;57.690;11.974;2022-09-13T00:28:48;6.23;;;3.83;;
24826;SDS011;12910;57.690;11.974;2022-09-13T00:31:15;4.33;;;3.63;;
24826;SDS011;12910;57.690;11.974;2022-09-13T00:33:41;3.43;;;3.13;;
24826;SDS011;12910;57.690;11.974;2022-09-13T00:36:08;5.10;;;3.03;;
24826;SDS011;12910;57.690;11.974;2022-09-13T00:38:38;5.63;;;3.80;;
24826;SDS011;12910;57.690;11.974;2022-09-13T00:41:05;4.23;;;3.20;;
24826;SDS011;12910;57.690;11.974;2022-09-13T00:43:40;5.53;;;3.17;;
24826;SDS011;12910;57.690;11.974;2022-09-13T00:46:19;4.43;;;3.73;;
24826;SDS011;12910;57.690;11.974;2022-09-13T00:48:51;5.73;;;3.07;;
24826;SDS011;12910;57.690;11.974;2022-09-13T00:51:21;3.87;;;3.33;;
24826;SDS011;12910;57.690;11.974;2022-09-13T00:53:47;3.87;;;3.53;;
24826;SDS011;12910;57.690;11.974;2022-09-13T00:56:18;5.03;;;3.40;;
24826;SDS011;12910;57.690;11.974;2022-09-13T01:01:17;5.87;;;3.17;;
24826;SDS011;12910;57.690;11.974;2022-09-13T01:03:47;5.50;;;2.33;;
24826;SDS011;12910;57.690;11.974;2022-09-13T01:06:16;3.10;;;2.90;;
24826;SDS011;12910;57.690;11.974;2022-09-13T01:08:45;5.00;;;3.00;;
24826;SDS011;12910;57.690;11.974;2022-09-13T01:11:23;4.33;;;3.30;;
24826;SDS011;12910;57.690;11.974;2022-09-13T01:13:54;4.07;;;3.03;;
24826;SDS011;12910;57.690;11.974;2022-09-13T01:16:21;6.53;;;3.50;;
24826;SDS011;12910;57.690;11.974;2022-09-13T01:18:46;4.50;;;3.30;;
24826;SDS011;12910;57.690;11.974;2022-09-13T01:24:29;5.07;;;3.23;;
24826;SDS011;12910;57.690;11.974;2022-09-13T01:41:42;4.10;;;3.80;;
24826;SDS011;12910;57.690;11.974;2022-09-13T01:44:34;3.83;;;2.70;;
24826;SDS011;12910;57.690;11.974;2022-09-13T01:50:13;4.13;;;3.10;;
24826;SDS011;12910;57.690;11.974;2022-09-13T02:00:46;2.20;;;1.20;;
24826;SDS011;12910;57.690;11.974;2022-09-13T02:03:21;6.30;;;2.43;;
24826;SDS011;12910;57.690;11.974;2022-09-13T02:05:58;8.63;;;2.80;;
24826;SDS011;12910;57.690;11.974;2022-09-13T02:08:46;15.13;;;3.40;;
24826;SDS011;12910;57.690;11.974;2022-09-13T02:11:16;9.27;;;4.03;;
24826;SDS011;12910;57.690;11.974;2022-09-13T02:18:57;3.63;;;1.47;;
24826;SDS011;12910;57.690;11.974;2022-09-13T02:21:28;4.30;;;1.20;;
24826;SDS011;12910;57.690;11.974;2022-09-13T02:24:02;4.77;;;1.17;;
24826;SDS011;12910;57.690;11.974;2022-09-13T02:26:29;3.87;;;1.60;;
24826;SDS011;12910;57.690;11.974;2022-09-13T02:28:56;6.20;;;1.90;;
24826;SDS011;12910;57.690;11.974;2022-09-13T02:31:38;2.93;;;1.50;;
24826;SDS011;12910;57.690;11.974;2022-09-13T02:34:47;10.17;;;2.43;;
24826;SDS011;12910;57.690;11.974;2022-09-13T02:37:09;7.33;;;2.03;;
24826;SDS011;12910;57.690;11.974;2022-09-13T02:39:38;13.07;;;4.37;;
24826;SDS011;12910;57.690;11.974;2022-09-13T02:44:49;22.30;;;4.97;;
24826;SDS011;12910;57.690;11.974;2022-09-13T02:52:52;10.10;;;3.30;;
24826;SDS011;12910;57.690;11.974;2022-09-13T02:55:25;21.13;;;5.27;;
24826;SDS011;12910;57.690;11.974;2022-09-13T03:00:48;10.30;;;3.80;;
24826;SDS011;12910;57.690;11.974;2022-09-13T03:03:14;22.20;;;5.40;;
24826;SDS011;12910;57.690;11.974;2022-09-13T03:05:40;16.23;;;4.70;;
24826;SDS011;12910;57.690;11.974;2022-09-13T03:08:07;24.30;;;5.60;;
24826;SDS011;12910;57.690;11.974;2022-09-13T03:13:53;17.60;;;4.40;;
24826;SDS011;12910;57.690;11.974;2022-09-13T03:22:38;20.40;;;2.37;;
24826;SDS011;12910;57.690;11.974;2022-09-13T03:39:55;4.77;;;1.10;;
24826;SDS011;12910;57.690;11.974;2022-09-13T03:44:55;3.20;;;0.70;;
24826;SDS011;12910;57.690;11.974;2022-09-13T03:47:22;2.67;;;0.63;;
24826;SDS011;12910;57.690;11.974;2022-09-13T03:49:51;3.40;;;0.83;;
24826;SDS011;12910;57.690;11.974;2022-09-13T03:52:17;3.07;;;0.70;;
24826;SDS011;12910;57.690;11.974;2022-09-13T03:54:43;2.63;;;0.90;;
24826;SDS011;12910;57.690;11.974;2022-09-13T03:59:46;2.00;;;0.93;;
24826;SDS011;12910;57.690;11.974;2022-09-13T04:02:15;3.30;;;0.97;;
24826;SDS011;12910;57.690;11.974;2022-09-13T04:04:41;1.80;;;0.93;;
24826;SDS011;12910;57.690;11.974;2022-09-13T04:07:08;4.87;;;0.90;;
24826;SDS011;12910;57.690;11.974;2022-09-13T04:09:35;8.27;;;0.87;;
24826;SDS011;12910;57.690;11.974;2022-09-13T04:12:00;1.03;;;0.77;;
24826;SDS011;12910;57.690;11.974;2022-09-13T04:14:26;5.20;;;0.53;;
24826;SDS011;12910;57.690;11.974;2022-09-13T04:16:52;1.40;;;0.73;;
24826;SDS011;12910;57.690;11.974;2022-09-13T04:19:19;1.30;;;0.50;;
24826;SDS011;12910;57.690;11.974;2022-09-13T04:21:48;1.87;;;0.70;;
24826;SDS011;12910;57.690;11.974;2022-09-13T04:24:18;1.33;;;0.60;;
24826;SDS011;12910;57.690;11.974;2022-09-13T04:26:47;2.13;;;0.90;;
24826;SDS011;12910;57.690;11.974;2022-09-13T04:29:14;1.03;;;0.63;;
24826;SDS011;12910;57.690;11.974;2022-09-13T04:31:39;1.33;;;0.73;;
24826;SDS011;12910;57.690;11.974;2022-09-13T04:34:04;2.67;;;1.40;;
24826;SDS011;12910;57.690;11.974;2022-09-13T04:36:31;2.83;;;1.20;;
24826;SDS011;12910;57.690;11.974;2022-09-13T04:38:56;1.53;;;0.50;;
24826;SDS011;12910;57.690;11.974;2022-09-13T04:41:23;1.63;;;0.60;;
24826;SDS011;12910;57.690;11.974;2022-09-13T04:43:49;2.00;;;0.57;;
24826;SDS011;12910;57.690;11.974;2022-09-13T04:46:14;2.20;;;0.60;;
24826;SDS011;12910;57.690;11.974;2022-09-13T04:48:40;1.53;;;0.50;;
24826;SDS011;12910;57.690;11.974;2022-09-13T04:51:06;5.87;;;0.83;;
24826;SDS011;12910;57.690;11.974;2022-09-13T04:53:31;0.90;;;0.67;;
24826;SDS011;12910;57.690;11.974;2022-09-13T04:56:03;5.63;;;0.60;;
24826;SDS011;12910;57.690;11.974;2022-09-13T04:58:29;0.70;;;0.70;;
24826;SDS011;12910;57.690;11.974;2022-09-13T05:01:06;0.93;;;0.70;;
24826;SDS011;12910;57.690;11.974;2022-09-13T05:03:33;1.10;;;1.00;;
24826;SDS011;12910;57.690;11.974;2022-09-13T05:06:00;1.60;;;0.70;;
24826;SDS011;12910;57.690;11.974;2022-09-13T05:08:29;1.73;;;0.70;;
24826;SDS011;12910;57.690;11.974;2022-09-13T05:10:55;1.53;;;0.60;;
24826;SDS011;12910;57.690;11.974;2022-09-13T05:13:20;1.73;;;0.50;;
24826;SDS011;12910;57.690;11.974;2022-09-13T05:15:46;2.23;;;0.40;;
24826;SDS011;12910;57.690;11.974;2022-09-13T05:18:11;1.20;;;0.43;;
24826;SDS011;12910;57.690;11.974;2022-09-13T05:20:37;0.80;;;0.43;;
24826;SDS011;12910;57.690;11.974;2022-09-13T05:23:02;3.47;;;0.70;;
24826;SDS011;12910;57.690;11.974;2022-09-13T05:25:27;1.20;;;0.50;;
24826;SDS011;12910;57.690;11.974;2022-09-13T05:27:53;3.97;;;0.83;;
24826;SDS011;12910;57.690;11.974;2022-09-13T05:30:18;2.67;;;0.70;;
24826;SDS011;12910;57.690;11.974;2022-09-13T05:32:44;2.17;;;0.50;;
24826;SDS011;12910;57.690;11.974;2022-09-13T05:35:09;1.40;;;0.77;;
24826;SDS011;12910;57.690;11.974;2022-09-13T05:37:34;2.53;;;0.70;;
24826;SDS011;12910;57.690;11.974;2022-09-13T05:40:00;3.90;;;1.73;;
24826;SDS011;12910;57.690;11.974;2022-09-13T05:42:26;1.07;;;0.30;;
24826;SDS011;12910;57.690;11.974;2022-09-13T05:44:51;1.93;;;0.50;;
24826;SDS011;12910;57.690;11.974;2022-09-13T05:47:16;3.80;;;0.70;;
24826;SDS011;12910;57.690;11.974;2022-09-13T05:49:42;1.80;;;0.70;;
24826;SDS011;12910;57.690;11.974;2022-09-13T05:52:07;3.47;;;1.20;;
24826;SDS011;12910;57.690;11.974;2022-09-13T05:54:33;4.37;;;0.70;;
24826;SDS011;12910;57.690;11.974;2022-09-13T05:56:58;3.17;;;0.70;;
24826;SDS011;12910;57.690;11.974;2022-09-13T05:59:23;1.47;;;0.50;;
24826;SDS011;12910;57.690;11.974;2022-09-13T06:01:49;4.53;;;0.77;;
24826;SDS011;12910;57.690;11.974;2022-09-13T06:04:14;3.03;;;0.80;;
24826;SDS011;12910;57.690;11.974;2022-09-13T06:06:40;1.93;;;0.70;;
24826;SDS011;12910;57.690;11.974;2022-09-13T06:09:05;4.63;;;0.70;;
24826;SDS011;12910;57.690;11.974;2022-09-13T06:11:32;1.97;;;0.67;;
24826;SDS011;12910;57.690;11.974;2022-09-13T06:13:58;2.73;;;1.07;;
24826;SDS011;12910;57.690;11.974;2022-09-13T06:16:24;9.37;;;1.07;;
24826;SDS011;12910;57.690;11.974;2022-09-13T06:18:49;4.27;;;0.77;;
24826;SDS011;12910;57.690;11.974;2022-09-13T06:21:16;6.07;;;0.60;;
24826;SDS011;12910;57.690;11.974;2022-09-13T06:23:47;5.10;;;1.10;;
24826;SDS011;12910;57.690;11.974;2022-09-13T06:26:19;6.30;;;2.27;;
24826;SDS011;12910;57.690;11.974;2022-09-13T06:28:52;2.67;;;0.87;;
24826;SDS011;12910;57.690;11.974;2022-09-13T06:31:21;2.40;;;0.50;;
24826;SDS011;12910;57.690;11.974;2022-09-13T06:33:48;3.10;;;0.77;;
24826;SDS011;12910;57.690;11.974;2022-09-13T06:36:21;3.07;;;0.70;;
24826;SDS011;12910;57.690;11.974;2022-09-13T06:38:47;2.10;;;0.50;;
24826;SDS011;12910;57.690;11.974;2022-09-13T06:41:14;4.27;;;0.80;;
24826;SDS011;12910;57.690;11.974;2022-09-13T06:43:42;5.10;;;0.57;;
24826;SDS011;12910;57.690;11.974;2022-09-13T06:46:09;3.97;;;0.70;;
24826;SDS011;12910;57.690;11.974;2022-09-13T06:48:37;3.47;;;0.73;;
24826;SDS011;12910;57.690;11.974;2022-09-13T06:51:05;4.83;;;1.37;;
24826;SDS011;12910;57.690;11.974;2022-09-13T06:53:36;4.00;;;1.00;;
24826;SDS011;12910;57.690;11.974;2022-09-13T06:56:04;2.13;;;0.70;;
24826;SDS011;12910;57.690;11.974;2022-09-13T06:58:35;1.87;;;0.90;;
24826;SDS011;12910;57.690;11.974;2022-09-13T07:01:22;5.67;;;0.80;;
24826;SDS011;12910;57.690;11.974;2022-09-13T07:03:50;3.10;;;0.60;;
24826;SDS011;12910;57.690;11.974;2022-09-13T07:06:36;7.10;;;1.30;;
24826;SDS011;12910;57.690;11.974;2022-09-13T07:09:10;8.13;;;1.50;;
24826;SDS011;12910;57.690;11.974;2022-09-13T07:11:40;4.53;;;0.60;;
24826;SDS011;12910;57.690;11.974;2022-09-13T07:14:06;2.57;;;1.00;;
24826;SDS011;12910;57.690;11.974;2022-09-13T07:16:34;3.43;;;0.80;;
24826;SDS011;12910;57.690;11.974;2022-09-13T07:19:03;5.50;;;0.50;;
24826;SDS011;12910;57.690;11.974;2022-09-13T07:21:39;2.03;;;0.40;;
24826;SDS011;12910;57.690;11.974;2022-09-13T07:24:05;7.57;;;0.63;;
24826;SDS011;12910;57.690;11.974;2022-09-13T07:26:31;2.10;;;0.73;;
24826;SDS011;12910;57.690;11.974;2022-09-13T07:28:59;1.60;;;0.50;;
24826;SDS011;12910;57.690;11.974;2022-09-13T07:31:32;3.63;;;0.70;;
24826;SDS011;12910;57.690;11.974;2022-09-13T07:34:04;6.60;;;0.70;;
24826;SDS011;12910;57.690;11.974;2022-09-13T07:36:33;2.80;;;0.73;;
24826;SDS011;12910;57.690;11.974;2022-09-13T07:39:00;4.33;;;0.97;;
24826;SDS011;12910;57.690;11.974;2022-09-13T07:41:28;6.60;;;0.80;;
24826;SDS011;12910;57.690;11.974;2022-09-13T07:43:58;5.03;;;0.93;;
24826;SDS011;12910;57.690;11.974;2022-09-13T07:46:30;3.17;;;1.13;;
24826;SDS011;12910;57.690;11.974;2022-09-13T07:48:57;6.37;;;0.83;;
24826;SDS011;12910;57.690;11.974;2022-09-13T07:51:27;3.47;;;0.90;;
24826;SDS011;12910;57.690;11.974;2022-09-13T07:54:01;6.97;;;0.77;;
24826;SDS011;12910;57.690;11.974;2022-09-13T07:56:33;4.13;;;0.60;;
24826;SDS011;12910;57.690;11.974;2022-09-13T07:59:02;2.50;;;0.77;;
24826;SDS011;12910;57.690;11.974;2022-09-13T08:01:37;4.17;;;1.93;;
24826;SDS011;12910;57.690;11.974;2022-09-13T08:04:15;11.53;;;1.63;;
24826;SDS011;12910;57.690;11.974;2022-09-13T08:06:43;4.80;;;0.83;;
24826;SDS011;12910;57.690;11.974;2022-09-13T08:09:10;4.13;;;0.83;;
24826;SDS011;12910;57.690;11.974;2022-09-13T08:11:37;2.43;;;0.90;;
24826;SDS011;12910;57.690;11.974;2022-09-13T08:14:04;5.63;;;0.70;;
24826;SDS011;12910;57.690;11.974;2022-09-13T08:16:31;3.77;;;0.83;;
24826;SDS011;12910;57.690;11.974;2022-09-13T08:18:58;5.53;;;0.70;;
24826;SDS011;12910;57.690;11.974;2022-09-13T08:21:26;4.30;;;1.00;;
24826;SDS011;12910;57.690;11.974;2022-09-13T08:23:57;16.80;;;1.40;;
24826;SDS011;12910;57.690;11.974;2022-09-13T08:26:25;7.70;;;1.10;;
24826;SDS011;12910;57.690;11.974;2022-09-13T08:28:54;3.77;;;0.97;;
24826;SDS011;12910;57.690;11.974;2022-09-13T08:31:24;3.43;;;0.70;;
24826;SDS011;12910;57.690;11.974;2022-09-13T08:33:50;6.80;;;0.80;;
24826;SDS011;12910;57.690;11.974;2022-09-13T08:36:16;5.50;;;0.50;;
24826;SDS011;12910;57.690;11.974;2022-09-13T08:38:46;2.87;;;0.87;;
24826;SDS011;12910;57.690;11.974;2022-09-13T08:50:22;1.70;;;0.50;;
24826;SDS011;12910;57.690;11.974;2022-09-13T09:01:06;1.90;;;0.50;;
24826;SDS011;12910;57.690;11.974;2022-09-13T09:03:43;2.83;;;0.80;;
24826;SDS011;12910;57.690;11.974;2022-09-13T09:06:17;1.17;;;0.40;;
24826;SDS011;12910;57.690;11.974;2022-09-13T09:08:49;4.03;;;1.07;;
24826;SDS011;12910;57.690;11.974;2022-09-13T09:11:31;8.73;;;0.90;;
24826;SDS011;12910;57.690;11.974;2022-09-13T09:16:52;1.93;;;0.63;;
24826;SDS011;12910;57.690;11.974;2022-09-13T09:19:28;5.50;;;1.53;;
24826;SDS011;12910;57.690;11.974;2022-09-13T09:22:18;4.13;;;0.77;;
24826;SDS011;12910;57.690;11.974;2022-09-13T09:24:50;2.20;;;0.50;;
24826;SDS011;12910;57.690;11.974;2022-09-13T09:27:20;5.57;;;0.80;;
24826;SDS011;12910;57.690;11.974;2022-09-13T09:29:46;2.93;;;0.97;;
24826;SDS011;12910;57.690;11.974;2022-09-13T09:40:55;3.27;;;0.80;;
24826;SDS011;12910;57.690;11.974;2022-09-13T09:43:29;5.07;;;0.63;;
24826;SDS011;12910;57.690;11.974;2022-09-13T09:46:03;4.03;;;1.23;;
24826;SDS011;12910;57.690;11.974;2022-09-13T09:48:35;8.23;;;1.40;;
24826;SDS011;12910;57.690;11.974;2022-09-13T09:51:05;5.40;;;1.00;;
24826;SDS011;12910;57.690;11.974;2022-09-13T09:53:36;2.93;;;0.90;;
24826;SDS011;12910;57.690;11.974;2022-09-13T09:56:14;8.07;;;1.87;;
24826;SDS011;12910;57.690;11.974;2022-09-13T09:58:43;12.57;;;0.90;;
24826;SDS011;12910;57.690;11.974;2022-09-13T10:03:52;3.87;;;0.60;;
24826;SDS011;12910;57.690;11.974;2022-09-13T10:06:27;11.87;;;1.10;;
24826;SDS011;12910;57.690;11.974;2022-09-13T10:09:03;6.53;;;0.63;;
24826;SDS011;12910;57.690;11.974;2022-09-13T10:11:37;5.50;;;1.77;;
24826;SDS011;12910;57.690;11.974;2022-09-13T10:14:25;4.10;;;1.53;;
24826;SDS011;12910;57.690;11.974;2022-09-13T10:17:00;4.60;;;0.67;;
24826;SDS011;12910;57.690;11.974;2022-09-13T10:19:50;7.20;;;0.70;;
24826;SDS011;12910;57.690;11.974;2022-09-13T10:22:19;3.07;;;0.50;;
24826;SDS011;12910;57.690;11.974;2022-09-13T10:24:45;4.03;;;0.87;;
24826;SDS011;12910;57.690;11.974;2022-09-13T10:27:17;2.57;;;0.80;;
24826;SDS011;12910;57.690;11.974;2022-09-13T10:29:46;7.13;;;0.70;;
24826;SDS011;12910;57.690;11.974;2022-09-13T10:32:15;5.40;;;1.13;;
24826;SDS011;12910;57.690;11.974;2022-09-13T10:34:43;4.33;;;1.17;;
24826;SDS011;12910;57.690;11.974;2022-09-13T10:37:14;2.87;;;0.80;;
24826;SDS011;12910;57.690;11.974;2022-09-13T10:42:26;1.90;;;0.67;;
24826;SDS011;12910;57.690;11.974;2022-09-13T10:45:06;2.33;;;1.00;;
24826;SDS011;12910;57.690;11.974;2022-09-13T10:47:43;3.77;;;1.00;;
24826;SDS011;12910;57.690;11.974;2022-09-13T10:50:25;9.67;;;0.93;;
24826;SDS011;12910;57.690;11.974;2022-09-13T10:52:53;2.23;;;0.60;;
24826;SDS011;12910;57.690;11.974;2022-09-13T10:55:30;5.90;;;1.00;;
24826;SDS011;12910;57.690;11.974;2022-09-13T11:00:32;4.63;;;0.50;;
24826;SDS011;12910;57.690;11.974;2022-09-13T11:03:12;3.30;;;1.00;;
24826;SDS011;12910;57.690;11.974;2022-09-13T11:16:32;4.90;;;2.63;;
24826;SDS011;12910;57.690;11.974;2022-09-13T11:30:29;3.23;;;0.60;;
24826;SDS011;12910;57.690;11.974;2022-09-13T11:41:12;1.13;;;0.30;;
24826;SDS011;12910;57.690;11.974;2022-09-13T11:43:51;3.33;;;0.53;;
24826;SDS011;12910;57.690;11.974;2022-09-13T11:46:31;1.87;;;0.50;;
24826;SDS011;12910;57.690;11.974;2022-09-13T11:51:37;0.47;;;0.40;;
24826;SDS011;12910;57.690;11.974;2022-09-13T11:56:58;0.67;;;0.20;;
24826;SDS011;12910;57.690;11.974;2022-09-13T12:00:14;0.97;;;0.23;;
24826;SDS011;12910;57.690;11.974;2022-09-13T12:05:11;2.30;;;0.60;;
24826;SDS011;12910;57.690;11.974;2022-09-13T12:07:48;4.10;;;0.70;;
24826;SDS011;12910;57.690;11.974;2022-09-13T12:10:21;7.90;;;0.40;;
24826;SDS011;12910;57.690;11.974;2022-09-13T12:12:50;3.07;;;0.60;;
24826;SDS011;12910;57.690;11.974;2022-09-13T12:18:15;1.47;;;0.50;;
24826;SDS011;12910;57.690;11.974;2022-09-13T12:20:51;1.60;;;0.53;;
24826;SDS011;12910;57.690;11.974;2022-09-13T12:23:35;2.70;;;0.60;;
24826;SDS011;12910;57.690;11.974;2022-09-13T12:26:12;2.37;;;0.57;;
24826;SDS011;12910;57.690;11.974;2022-09-13T12:29:00;2.50;;;0.53;;
24826;SDS011;12910;57.690;11.974;2022-09-13T12:31:29;2.93;;;0.60;;
24826;SDS011;12910;57.690;11.974;2022-09-13T12:33:56;1.97;;;0.37;;
24826;SDS011;12910;57.690;11.974;2022-09-13T12:39:17;1.10;;;0.37;;
24826;SDS011;12910;57.690;11.974;2022-09-13T12:47:32;2.70;;;0.83;;
24826;SDS011;12910;57.690;11.974;2022-09-13T12:58:33;1.13;;;0.40;;
24826;SDS011;12910;57.690;11.974;2022-09-13T13:01:16;1.30;;;0.20;;
24826;SDS011;12910;57.690;11.974;2022-09-13T13:03:58;2.73;;;0.30;;
24826;SDS011;12910;57.690;11.974;2022-09-13T13:06:49;8.80;;;0.50;;
24826;SDS011;12910;57.690;11.974;2022-09-13T13:12:11;1.67;;;0.40;;
24826;SDS011;12910;57.690;11.974;2022-09-13T13:14:49;1.33;;;0.30;;
24826;SDS011;12910;57.690;11.974;2022-09-13T13:29:04;1.27;;;0.50;;
24826;SDS011;12910;57.690;11.974;2022-09-13T13:31:37;2.13;;;0.57;;
24826;SDS011;12910;57.690;11.974;2022-09-13T13:39:03;1.13;;;0.30;;
24826;SDS011;12910;57.690;11.974;2022-09-13T13:43:59;2.70;;;0.43;;
24826;SDS011;12910;57.690;11.974;2022-09-13T13:46:27;0.87;;;0.40;;
24826;SDS011;12910;57.690;11.974;2022-09-13T13:48:55;3.40;;;0.60;;
24826;SDS011;12910;57.690;11.974;2022-09-13T13:51:22;1.70;;;0.20;;
24826;SDS011;12910;57.690;11.974;2022-09-13T13:53:53;2.50;;;0.20;;
24826;SDS011;12910;57.690;11.974;2022-09-13T13:56:23;0.50;;;0.37;;
24826;SDS011;12910;57.690;11.974;2022-09-13T13:59:03;0.83;;;0.40;;
24826;SDS011;12910;57.690;11.974;2022-09-13T14:01:37;2.13;;;0.47;;
24826;SDS011;12910;57.690;11.974;2022-09-13T14:06:49;3.00;;;0.67;;
24826;SDS011;12910;57.690;11.974;2022-09-13T14:12:28;3.53;;;0.90;;
24826;SDS011;12910;57.690;11.974;2022-09-13T14:15:23;1.63;;;0.50;;
24826;SDS011;12910;57.690;11.974;2022-09-13T14:18:16;4.17;;;0.73;;
24826;SDS011;12910;57.690;11.974;2022-09-13T14:20:56;4.57;;;1.20;;
24826;SDS011;12910;57.690;11.974;2022-09-13T14:23:26;4.80;;;1.67;;
24826;SDS011;12910;57.690;11.974;2022-09-13T14:25:58;8.57;;;1.37;;
24826;SDS011;12910;57.690;11.974;2022-09-13T14:28:24;12.83;;;2.70;;
24826;SDS011;12910;57.690;11.974;2022-09-13T14:30:54;7.30;;;2.10;;
24826;SDS011;12910;57.690;11.974;2022-09-13T14:33:25;12.67;;;2.57;;
24826;SDS011;12910;57.690;11.974;2022-09-13T14:36:00;6.90;;;1.57;;
24826;SDS011;12910;57.690;11.974;2022-09-13T14:38:29;7.10;;;1.57;;
24826;SDS011;12910;57.690;11.974;2022-09-13T14:41:09;4.13;;;1.13;;
24826;SDS011;12910;57.690;11.974;2022-09-13T14:43:38;8.60;;;1.27;;
24826;SDS011;12910;57.690;11.974;2022-09-13T14:46:15;7.30;;;2.60;;
24826;SDS011;12910;57.690;11.974;2022-09-13T14:48:48;7.53;;;2.67;;
24826;SDS011;12910;57.690;11.974;2022-09-13T14:53:50;4.77;;;1.13;;
24826;SDS011;12910;57.690;11.974;2022-09-13T14:56:23;2.40;;;0.70;;
24826;SDS011;12910;57.690;11.974;2022-09-13T14:59:10;6.20;;;0.90;;
24826;SDS011;12910;57.690;11.974;2022-09-13T15:01:39;10.60;;;1.83;;
24826;SDS011;12910;57.690;11.974;2022-09-13T15:04:05;11.00;;;2.73;;
24826;SDS011;12910;57.690;11.974;2022-09-13T15:06:32;3.97;;;1.17;;
24826;SDS011;12910;57.690;11.974;2022-09-13T15:11:35;16.97;;;2.13;;
24826;SDS011;12910;57.690;11.974;2022-09-13T15:14:35;10.27;;;2.50;;
24826;SDS011;12910;57.690;11.974;2022-09-13T15:17:05;8.77;;;2.03;;
24826;SDS011;12910;57.690;11.974;2022-09-13T15:19:42;6.10;;;2.90;;
24826;SDS011;12910;57.690;11.974;2022-09-13T15:24:45;12.47;;;2.20;;
24826;SDS011;12910;57.690;11.974;2022-09-13T15:30:05;20.37;;;2.53;;
24826;SDS011;12910;57.690;11.974;2022-09-13T15:32:43;17.57;;;2.80;;
24826;SDS011;12910;57.690;11.974;2022-09-13T15:43:42;23.80;;;2.20;;
24826;SDS011;12910;57.690;11.974;2022-09-13T15:46:08;12.20;;;1.97;;
24826;SDS011;12910;57.690;11.974;2022-09-13T15:48:38;11.27;;;3.20;;
24826;SDS011;12910;57.690;11.974;2022-09-13T15:53:38;10.80;;;2.87;;
24826;SDS011;12910;57.690;11.974;2022-09-13T15:56:04;10.03;;;2.30;;
24826;SDS011;12910;57.690;11.974;2022-09-13T15:58:32;19.73;;;2.77;;
24826;SDS011;12910;57.690;11.974;2022-09-13T16:00:59;8.93;;;2.53;;
24826;SDS011;12910;57.690;11.974;2022-09-13T16:03:24;16.30;;;4.00;;
24826;SDS011;12910;57.690;11.974;2022-09-13T16:05:49;12.97;;;3.07;;
24826;SDS011;12910;57.690;11.974;2022-09-13T16:08:15;15.73;;;2.53;;
24826;SDS011;12910;57.690;11.974;2022-09-13T16:10:40;20.13;;;2.63;;
24826;SDS011;12910;57.690;11.974;2022-09-13T16:13:06;21.40;;;2.20;;
24826;SDS011;12910;57.690;11.974;2022-09-13T16:15:31;23.63;;;3.20;;
24826;SDS011;12910;57.690;11.974;2022-09-13T16:17:57;6.67;;;2.17;;
24826;SDS011;12910;57.690;11.974;2022-09-13T16:20:22;8.83;;;2.00;;
24826;SDS011;12910;57.690;11.974;2022-09-13T16:22:48;13.37;;;2.03;;
24826;SDS011;12910;57.690;11.974;2022-09-13T16:25:13;8.97;;;2.53;;
24826;SDS011;12910;57.690;11.974;2022-09-13T16:27:40;9.80;;;2.53;;
24826;SDS011;12910;57.690;11.974;2022-09-13T16:30:08;17.27;;;2.43;;
24826;SDS011;12910;57.690;11.974;2022-09-13T16:32:36;9.33;;;1.93;;
24826;SDS011;12910;57.690;11.974;2022-09-13T16:35:01;5.90;;;3.37;;
24826;SDS011;12910;57.690;11.974;2022-09-13T16:37:27;22.20;;;2.27;;
24826;SDS011;12910;57.690;11.974;2022-09-13T16:39:54;8.07;;;1.53;;
24826;SDS011;12910;57.690;11.974;2022-09-13T16:42:21;9.57;;;2.47;;
24826;SDS011;12910;57.690;11.974;2022-09-13T16:44:47;5.27;;;1.43;;
24826;SDS011;12910;57.690;11.974;2022-09-13T16:47:12;6.60;;;1.87;;
24826;SDS011;12910;57.690;11.974;2022-09-13T16:49:38;12.60;;;1.90;;
24826;SDS011;12910;57.690;11.974;2022-09-13T16:52:04;8.10;;;1.27;;
24826;SDS011;12910;57.690;11.974;2022-09-13T16:54:29;12.63;;;2.33;;
24826;SDS011;12910;57.690;11.974;2022-09-13T16:56:55;7.93;;;2.50;;
24826;SDS011;12910;57.690;11.974;2022-09-13T16:59:22;14.97;;;2.03;;
24826;SDS011;12910;57.690;11.974;2022-09-13T17:01:48;11.70;;;2.67;;
24826;SDS011;12910;57.690;11.974;2022-09-13T17:04:13;8.50;;;2.07;;
24826;SDS011;12910;57.690;11.974;2022-09-13T17:06:39;12.00;;;2.27;;
24826;SDS011;12910;57.690;11.974;2022-09-13T17:09:05;10.63;;;2.27;;
24826;SDS011;12910;57.690;11.974;2022-09-13T17:11:32;12.83;;;2.67;;
24826;SDS011;12910;57.690;11.974;2022-09-13T17:14:00;8.33;;;3.17;;
24826;SDS011;12910;57.690;11.974;2022-09-13T17:18:57;13.10;;;2.73;;
24826;SDS011;12910;57.690;11.974;2022-09-13T17:21:25;11.30;;;2.00;;
24826;SDS011;12910;57.690;11.974;2022-09-13T17:23:51;8.80;;;2.30;;
24826;SDS011;12910;57.690;11.974;2022-09-13T17:26:17;6.33;;;1.50;;
24826;SDS011;12910;57.690;11.974;2022-09-13T17:28:43;13.33;;;2.57;;
24826;SDS011;12910;57.690;11.974;2022-09-13T17:31:08;7.33;;;1.90;;
24826;SDS011;12910;57.690;11.974;2022-09-13T17:33:33;12.87;;;2.30;;
24826;SDS011;12910;57.690;11.974;2022-09-13T17:36:03;4.67;;;1.30;;
24826;SDS011;12910;57.690;11.974;2022-09-13T17:38:32;7.77;;;1.90;;
24826;SDS011;12910;57.690;11.974;2022-09-13T17:40:59;9.10;;;2.03;;
24826;SDS011;12910;57.690;11.974;2022-09-13T17:43:25;5.73;;;1.93;;
24826;SDS011;12910;57.690;11.974;2022-09-13T17:45:51;4.23;;;1.50;;
24826;SDS011;12910;57.690;11.974;2022-09-13T17:48:16;8.70;;;1.87;;
24826;SDS011;12910;57.690;11.974;2022-09-13T17:50:42;15.87;;;1.83;;
24826;SDS011;12910;57.690;11.974;2022-09-13T17:53:07;12.10;;;1.93;;
24826;SDS011;12910;57.690;11.974;2022-09-13T17:55:33;7.27;;;1.77;;
24826;SDS011;12910;57.690;11.974;2022-09-13T17:57:58;10.73;;;1.97;;
24826;SDS011;12910;57.690;11.974;2022-09-13T18:00:23;10.37;;;2.50;;
24826;SDS011;12910;57.690;11.974;2022-09-13T18:02:50;11.90;;;1.77;;
24826;SDS011;12910;57.690;11.974;2022-09-13T18:05:15;11.10;;;1.97;;
24826;SDS011;12910;57.690;11.974;2022-09-13T18:07:41;7.50;;;1.70;;
24826;SDS011;12910;57.690;11.974;2022-09-13T18:10:06;10.23;;;1.97;;
24826;SDS011;12910;57.690;11.974;2022-09-13T18:12:32;12.30;;;3.17;;
24826;SDS011;12910;57.690;11.974;2022-09-13T18:14:57;15.40;;;2.10;;
24826;SDS011;12910;57.690;11.974;2022-09-13T18:17:23;21.13;;;3.33;;
24826;SDS011;12910;57.690;11.974;2022-09-13T18:19:49;6.70;;;2.40;;
24826;SDS011;12910;57.690;11.974;2022-09-13T18:22:14;6.00;;;2.10;;
24826;SDS011;12910;57.690;11.974;2022-09-13T18:24:39;8.53;;;1.97;;
24826;SDS011;12910;57.690;11.974;2022-09-13T18:27:05;15.10;;;1.90;;
24826;SDS011;12910;57.690;11.974;2022-09-13T18:29:31;10.40;;;2.63;;
24826;SDS011;12910;57.690;11.974;2022-09-13T18:31:57;11.93;;;2.73;;
24826;SDS011;12910;57.690;11.974;2022-09-13T18:34:22;11.77;;;2.50;;